Time;durP1;ratioP1;P1;durP2;ratioP2;P2;SDS_P1;SDS_P2;PMS_P1;PMS_P2;Temp;Humidity;BMP_temperature;BMP_pressure;BME280_temperature;BME280_humidity;BME280_pressure;Samples;Min_cycle;Max_cycle;Signal;HPM_P1;HPM_P2
2023/03/08 00:00:15;;;;;;;13.35;7.78;;;4.80;96.20;;;;;;5013426;28;20029;-58
2023/03/08 00:02:40;;;;;;;10.32;7.72;;;4.80;96.60;;;;;;5007675;28;20038;-56
2023/03/08 00:05:07;;;;;;;10.18;7.38;;;4.80;96.30;;;;;;5004151;28;20041;-57
2023/03/08 00:07:33;;;;;;;11.63;7.70;;;4.80;96.90;;;;;;5022408;28;20033;-56
2023/03/08 00:09:58;;;;;;;10.68;7.25;;;4.80;96.60;;;;;;4998168;28;20376;-56
2023/03/08 00:12:24;;;;;;;12.35;7.88;;;4.80;96.60;;;;;;5014385;28;20164;-58
2023/03/08 00:14:50;;;;;;;11.30;8.43;;;4.70;96.90;;;;;;5007349;28;20151;-57
2023/03/08 00:17:17;;;;;;;9.82;6.85;;;4.80;97.10;;;;;;5005309;28;20045;-57
2023/03/08 00:19:43;;;;;;;9.10;6.68;;;4.70;97.40;;;;;;5016269;28;20894;-57
2023/03/08 00:22:09;;;;;;;9.07;7.45;;;4.70;97.10;;;;;;4998282;28;20471;-57
2023/03/08 00:24:35;;;;;;;12.50;8.45;;;4.70;96.90;;;;;;5014666;28;20026;-56
2023/03/08 00:27:01;;;;;;;9.18;7.45;;;4.70;97.30;;;;;;5005165;28;20045;-58
2023/03/08 00:29:26;;;;;;;10.60;7.05;;;4.70;97.40;;;;;;5004544;28;20033;-57
2023/03/08 00:31:52;;;;;;;8.43;6.40;;;4.70;97.40;;;;;;5015018;28;20097;-57
2023/03/08 00:34:18;;;;;;;8.43;5.05;;;4.70;99.20;;;;;;4999314;28;20487;-58
2023/03/08 00:36:43;;;;;;;4.93;3.67;;;4.60;99.90;;;;;;5015729;28;20110;-58
2023/03/08 00:39:10;;;;;;;4.80;3.67;;;4.40;99.90;;;;;;5006341;28;20061;-58
2023/03/08 00:41:36;;;;;;;4.20;3.05;;;4.30;99.90;;;;;;5005937;28;20095;-58
2023/03/08 00:44:03;;;;;;;3.55;2.63;;;4.20;99.90;;;;;;5010706;28;20089;-56
2023/03/08 00:46:29;;;;;;;3.83;2.45;;;4.10;99.90;;;;;;4998247;28;20022;-58
2023/03/08 00:48:54;;;;;;;2.90;2.22;;;4.00;99.90;;;;;;5018092;28;20025;-57
2023/03/08 00:51:21;;;;;;;2.42;1.73;;;3.90;99.90;;;;;;5000452;28;20538;-57
2023/03/08 00:53:48;;;;;;;2.72;1.67;;;3.80;99.90;;;;;;5007941;28;20029;-57
2023/03/08 00:56:14;;;;;;;1.95;1.52;;;3.70;99.90;;;;;;5011710;28;20042;-57
2023/03/08 00:58:40;;;;;;;2.63;1.75;;;3.70;99.90;;;;;;5000921;28;20038;-57
2023/03/08 01:01:08;;;;;;;2.70;1.85;;;3.60;99.90;;;;;;5014225;28;20398;-57
2023/03/08 01:03:34;;;;;;;2.38;1.65;;;3.60;99.90;;;;;;4999693;28;20080;-57
2023/03/08 01:06:07;;;;;;;1.50;1.23;;;3.50;99.90;;;;;;4989005;28;20034;-57
2023/03/08 01:08:33;;;;;;;2.15;1.63;;;3.50;99.90;;;;;;5003036;28;20037;-58
2023/03/08 01:10:59;;;;;;;2.58;1.52;;;3.50;99.90;;;;;;5014217;28;20486;-57
2023/03/08 01:13:33;;;;;;;1.73;1.23;;;3.50;99.90;;;;;;4997873;28;20482;-57
2023/03/08 01:16:00;;;;;;;2.05;1.50;;;3.50;99.90;;;;;;4998742;28;20053;-56
2023/03/08 01:18:26;;;;;;;2.28;1.30;;;3.40;99.90;;;;;;4998249;28;20615;-57
2023/03/08 01:21:00;;;;;;;2.08;1.25;;;3.40;99.90;;;;;;5009297;28;20021;-56
2023/03/08 01:23:26;;;;;;;1.67;1.30;;;3.40;99.90;;;;;;5010005;28;20442;-56
2023/03/08 01:26:00;;;;;;;1.77;1.13;;;3.30;99.90;;;;;;4997347;28;20048;-57
2023/03/08 01:28:26;;;;;;;1.80;1.27;;;3.30;99.90;;;;;;5013309;28;20038;-55
2023/03/08 01:30:52;;;;;;;1.00;0.90;;;3.30;99.90;;;;;;5002005;28;20089;-57
2023/03/08 01:33:17;;;;;;;1.42;1.20;;;3.30;99.90;;;;;;5013636;28;20399;-57
2023/03/08 01:35:43;;;;;;;1.13;0.90;;;3.30;99.90;;;;;;5004015;28;20033;-57
2023/03/08 01:38:09;;;;;;;2.97;1.90;;;3.20;99.90;;;;;;5003004;28;20022;-58
2023/03/08 01:40:34;;;;;;;1.33;1.05;;;3.20;99.90;;;;;;5013945;28;20901;-57
2023/03/08 01:43:30;;;;;;;2.03;1.70;;;3.20;99.90;;;;;;4999733;28;20244;-56
2023/03/08 01:46:17;;;;;;;3.13;1.27;;;3.20;99.90;;;;;;4994047;28;20085;-58
2023/03/08 01:48:55;;;;;;;0.90;0.70;;;3.20;99.90;;;;;;4994309;28;20410;-57
2023/03/08 01:51:43;;;;;;;1.02;0.93;;;3.20;99.90;;;;;;4996163;28;20037;-58
2023/03/08 01:54:31;;;;;;;0.95;0.82;;;3.20;99.90;;;;;;4996356;28;20034;-57
2023/03/08 01:57:14;;;;;;;1.13;1.02;;;3.10;99.90;;;;;;4996294;28;20026;-57
2023/03/08 01:59:41;;;;;;;1.70;0.85;;;3.20;99.90;;;;;;4996310;28;20084;-57
2023/03/08 02:02:07;;;;;;;1.10;1.00;;;3.10;99.90;;;;;;5000755;28;20064;-56
2023/03/08 02:04:33;;;;;;;1.63;1.00;;;3.10;99.90;;;;;;5016898;28;20025;-57
2023/03/08 02:06:58;;;;;;;1.25;1.10;;;3.10;99.90;;;;;;4997536;28;20398;-56
2023/03/08 02:09:24;;;;;;;1.65;1.10;;;3.10;99.90;;;;;;5012152;28;20490;-58
2023/03/08 02:11:51;;;;;;;0.77;0.70;;;3.10;99.90;;;;;;5005999;28;20080;-58
2023/03/08 02:14:17;;;;;;;0.85;0.80;;;3.10;99.90;;;;;;5000985;28;20030;-58
2023/03/08 02:16:42;;;;;;;1.05;0.88;;;3.10;99.90;;;;;;5014479;28;20497;-57
2023/03/08 02:19:33;;;;;;;2.15;1.05;;;3.10;99.90;;;;;;4998113;28;20033;-57
2023/03/08 02:22:07;;;;;;;1.33;1.00;;;3.10;99.90;;;;;;4996670;28;20169;-57
2023/03/08 02:24:33;;;;;;;1.23;1.00;;;3.10;99.90;;;;;;5012748;28;20034;-57
2023/03/08 02:27:07;;;;;;;5.35;0.80;;;3.10;99.90;;;;;;5005004;28;20030;-58
2023/03/08 02:29:33;;;;;;;1.27;1.02;;;3.10;99.90;;;;;;5004318;28;20041;-57
2023/03/08 02:31:59;;;;;;;1.38;1.00;;;3.20;99.90;;;;;;5009690;28;20030;-57
2023/03/08 02:34:25;;;;;;;1.35;1.15;;;3.10;99.90;;;;;;4995572;28;20018;-57
2023/03/08 02:36:50;;;;;;;0.98;0.88;;;3.10;99.90;;;;;;5014014;28;20022;-57
2023/03/08 02:39:16;;;;;;;1.15;1.05;;;3.10;99.90;;;;;;5000580;28;20022;-57
2023/03/08 02:41:41;;;;;;;1.52;1.10;;;3.10;99.90;;;;;;5005168;28;20106;-58
2023/03/08 02:44:07;;;;;;;2.00;1.75;;;3.10;99.90;;;;;;5012488;28;20037;-57
2023/03/08 02:46:33;;;;;;;1.48;1.15;;;3.10;99.90;;;;;;4995933;28;20019;-58
2023/03/08 02:48:59;;;;;;;1.85;1.30;;;3.10;99.90;;;;;;5015551;28;20039;-57
2023/03/08 02:51:24;;;;;;;1.48;1.10;;;3.10;99.90;;;;;;4998691;28;20577;-57
2023/03/08 02:53:50;;;;;;;1.70;1.20;;;3.10;99.90;;;;;;5007170;28;20117;-57
2023/03/08 02:56:16;;;;;;;1.10;1.00;;;3.10;99.90;;;;;;5009778;28;20030;-57
2023/03/08 02:58:41;;;;;;;2.30;1.10;;;3.10;99.90;;;;;;4994546;28;20480;-57
2023/03/08 03:01:12;;;;;;;1.50;1.30;;;3.10;99.90;;;;;;5018095;28;20026;-57
2023/03/08 03:03:38;;;;;;;1.33;0.98;;;3.00;99.90;;;;;;4997484;28;20073;-57
2023/03/08 03:06:03;;;;;;;1.70;1.30;;;3.00;99.90;;;;;;5011634;28;20018;-57
2023/03/08 03:08:30;;;;;;;1.25;1.13;;;3.00;99.90;;;;;;5008717;28;20030;-58
2023/03/08 03:10:56;;;;;;;1.38;1.10;;;3.00;99.90;;;;;;4997056;28;20117;-56
2023/03/08 03:13:21;;;;;;;2.58;1.25;;;3.00;99.90;;;;;;5012568;28;20110;-58
2023/03/08 03:15:47;;;;;;;2.30;1.30;;;3.00;99.90;;;;;;4994033;28;20044;-56
2023/03/08 03:18:12;;;;;;;1.98;1.60;;;3.00;99.90;;;;;;5007989;28;20083;-56
2023/03/08 03:20:38;;;;;;;1.30;1.20;;;3.00;99.90;;;;;;5003891;28;20038;-57
2023/03/08 03:23:05;;;;;;;2.35;1.63;;;3.00;99.90;;;;;;4999414;28;20030;-58
2023/03/08 03:25:30;;;;;;;1.80;1.30;;;3.00;99.90;;;;;;5016480;28;20022;-57
2023/03/08 03:27:56;;;;;;;1.90;1.45;;;3.00;99.90;;;;;;5015914;28;20521;-57
2023/03/08 03:30:22;;;;;;;2.17;1.48;;;2.90;99.90;;;;;;5000986;28;20030;-57
2023/03/08 03:32:47;;;;;;;2.85;1.50;;;2.90;99.90;;;;;;5004628;28;20030;-58
2023/03/08 03:35:13;;;;;;;1.80;1.40;;;2.90;99.90;;;;;;5008905;28;20045;-57
2023/03/08 03:37:39;;;;;;;2.17;1.48;;;2.90;99.90;;;;;;4996849;28;20022;-57
2023/03/08 03:40:05;;;;;;;2.13;1.48;;;2.90;99.90;;;;;;5016790;28;20024;-57
2023/03/08 03:42:30;;;;;;;1.70;1.55;;;2.90;99.90;;;;;;5000978;28;20127;-57
2023/03/08 03:44:56;;;;;;;2.00;1.63;;;2.90;99.90;;;;;;5008606;28;20026;-58
2023/03/08 03:47:22;;;;;;;1.98;1.60;;;2.90;99.90;;;;;;5006036;28;20027;-57
2023/03/08 03:49:47;;;;;;;2.63;2.05;;;2.90;99.90;;;;;;4997024;28;20053;-58
2023/03/08 03:52:13;;;;;;;2.70;2.00;;;3.00;99.90;;;;;;5011742;28;20525;-58
2023/03/08 03:54:38;;;;;;;2.88;2.20;;;3.00;99.90;;;;;;4999163;28;20038;-56
2023/03/08 03:57:04;;;;;;;2.75;1.95;;;3.00;99.90;;;;;;5006937;28;20026;-58
2023/03/08 03:59:30;;;;;;;2.80;2.25;;;3.00;99.90;;;;;;5003604;28;20041;-58
2023/03/08 04:01:55;;;;;;;4.50;3.20;;;3.00;99.90;;;;;;5001924;28;20025;-57
2023/03/08 04:04:21;;;;;;;3.08;2.25;;;3.00;99.90;;;;;;5015648;28;20033;-58
2023/03/08 04:06:47;;;;;;;3.05;2.28;;;3.00;99.90;;;;;;4994314;28;20490;-57
2023/03/08 04:09:16;;;;;;;3.70;2.83;;;3.00;99.90;;;;;;5009368;28;20029;-58
2023/03/08 04:11:41;;;;;;;3.05;2.40;;;3.00;99.90;;;;;;5003554;28;20499;-57
2023/03/08 04:14:07;;;;;;;3.30;2.35;;;3.00;99.90;;;;;;4999310;28;20088;-58
2023/03/08 04:16:35;;;;;;;2.83;1.88;;;3.00;99.90;;;;;;5013030;28;20398;-57
2023/03/08 04:19:04;;;;;;;2.47;1.70;;;2.90;99.90;;;;;;4994877;28;20545;-58
2023/03/08 04:21:30;;;;;;;4.47;2.13;;;2.90;99.90;;;;;;5010420;28;20034;-57
2023/03/08 04:23:56;;;;;;;2.80;2.22;;;2.90;99.90;;;;;;5002929;28;20376;-57
2023/03/08 04:26:22;;;;;;;3.17;2.38;;;2.80;99.90;;;;;;5001722;28;20034;-57
2023/03/08 04:28:48;;;;;;;6.05;4.70;;;2.80;99.90;;;;;;5014259;28;20033;-57
2023/03/08 04:31:23;;;;;;;5.35;3.90;;;2.80;99.90;;;;;;4994981;28;20167;-57
2023/03/08 04:33:49;;;;;;;3.95;2.63;;;2.80;99.90;;;;;;5011790;28;20113;-57
2023/03/08 04:36:16;;;;;;;3.70;3.20;;;2.80;99.90;;;;;;5000326;28;20037;-58
2023/03/08 04:38:44;;;;;;;4.18;3.08;;;2.80;99.90;;;;;;5007401;28;20121;-59
2023/03/08 04:41:13;;;;;;;6.22;4.68;;;2.90;99.90;;;;;;5013192;28;20030;-57
2023/03/08 04:43:42;;;;;;;6.28;4.35;;;2.90;99.90;;;;;;5002437;28;20022;-56
2023/03/08 04:46:08;;;;;;;7.45;5.25;;;2.90;99.90;;;;;;5016758;28;20024;-57
2023/03/08 04:48:34;;;;;;;8.38;5.43;;;3.00;99.90;;;;;;4997356;28;20030;-57
2023/03/08 04:51:03;;;;;;;7.57;5.53;;;3.00;99.90;;;;;;5008900;28;20025;-58
2023/03/08 04:53:30;;;;;;;6.97;4.78;;;3.00;99.90;;;;;;5008868;28;20827;-57
2023/03/08 04:55:58;;;;;;;6.15;4.93;;;3.00;99.90;;;;;;5001176;28;20433;-56
2023/03/08 04:58:24;;;;;;;6.75;4.60;;;3.10;99.90;;;;;;5017015;28;20026;-56
2023/03/08 05:00:49;;;;;;;7.10;4.45;;;3.10;99.90;;;;;;4995149;28;20049;-58
2023/03/08 05:03:15;;;;;;;6.10;4.82;;;3.10;99.90;;;;;;5012178;28;20036;-56
2023/03/08 05:05:49;;;;;;;7.00;6.03;;;3.10;99.90;;;;;;5009085;28;20035;-57
2023/03/08 05:08:15;;;;;;;11.23;8.02;;;3.10;99.90;;;;;;5004738;28;20495;-58
2023/03/08 05:10:47;;;;;;;9.02;8.00;;;3.10;99.90;;;;;;5014819;28;20040;-58
2023/03/08 05:13:13;;;;;;;10.85;7.72;;;3.20;99.90;;;;;;4999509;28;20030;-57
2023/03/08 05:15:38;;;;;;;12.20;7.65;;;3.30;99.90;;;;;;5014704;28;20049;-57
2023/03/08 05:18:04;;;;;;;9.50;7.65;;;3.30;99.90;;;;;;5005440;28;20042;-57
2023/03/08 05:20:30;;;;;;;12.02;8.48;;;3.40;99.90;;;;;;5003815;28;20044;-57
2023/03/08 05:22:56;;;;;;;13.80;7.97;;;3.40;99.90;;;;;;5016851;28;20156;-56
2023/03/08 05:25:21;;;;;;;13.32;7.72;;;3.40;99.90;;;;;;5001233;28;20029;-57
2023/03/08 05:27:47;;;;;;;8.77;7.32;;;3.40;99.90;;;;;;5020926;28;20103;-58
2023/03/08 05:30:14;;;;;;;9.45;7.03;;;3.40;99.90;;;;;;5002459;28;20077;-58
2023/03/08 05:32:39;;;;;;;14.85;7.95;;;3.40;99.90;;;;;;5007512;28;20264;-56
2023/03/08 05:35:05;;;;;;;15.27;9.23;;;3.40;99.90;;;;;;5011914;28;20029;-58
2023/03/08 05:37:31;;;;;;;17.08;7.65;;;3.40;99.90;;;;;;4994295;28;20407;-57
2023/03/08 05:39:56;;;;;;;10.23;7.32;;;3.30;99.90;;;;;;4997705;28;20167;-58
2023/03/08 05:42:22;;;;;;;9.98;6.88;;;3.30;99.90;;;;;;5012760;28;20109;-57
2023/03/08 05:44:48;;;;;;;13.60;8.90;;;3.30;99.90;;;;;;5007350;28;20402;-58
2023/03/08 05:47:13;;;;;;;10.32;7.57;;;3.30;99.90;;;;;;5004188;28;20034;-57
2023/03/08 05:49:39;;;;;;;8.77;6.88;;;3.30;99.90;;;;;;5013062;28;20036;-58
2023/03/08 05:52:04;;;;;;;10.55;7.10;;;3.30;99.90;;;;;;4996034;28;20479;-58
2023/03/08 05:54:30;;;;;;;10.20;8.10;;;3.40;99.90;;;;;;5012776;28;20030;-56
2023/03/08 05:56:55;;;;;;;11.43;6.75;;;3.40;99.90;;;;;;5005968;28;20100;-57
2023/03/08 05:59:21;;;;;;;12.07;7.80;;;3.50;99.90;;;;;;5006452;28;20048;-58
2023/03/08 06:01:47;;;;;;;12.40;6.65;;;3.50;99.90;;;;;;5012718;28;20503;-58
2023/03/08 06:04:12;;;;;;;11.68;7.35;;;3.50;99.90;;;;;;4997917;28;20034;-57
2023/03/08 06:06:38;;;;;;;10.00;7.43;;;3.60;99.90;;;;;;5012764;28;20053;-57
2023/03/08 06:09:03;;;;;;;10.40;7.40;;;3.60;99.90;;;;;;5001965;28;20034;-57
2023/03/08 06:11:29;;;;;;;12.35;7.47;;;3.60;99.90;;;;;;5001991;28;20030;-56
2023/03/08 06:13:55;;;;;;;12.20;7.97;;;3.60;99.90;;;;;;5012629;28;20107;-58
2023/03/08 06:16:21;;;;;;;17.45;8.77;;;3.60;99.90;;;;;;4996990;28;20034;-57
2023/03/08 06:18:46;;;;;;;11.35;7.18;;;3.60;99.90;;;;;;5013712;28;20030;-57
2023/03/08 06:21:17;;;;;;;14.32;8.63;;;3.70;99.90;;;;;;5002009;28;20058;-58
2023/03/08 06:23:44;;;;;;;15.38;8.20;;;3.70;99.90;;;;;;5006013;28;20030;-58
2023/03/08 06:26:10;;;;;;;10.07;7.05;;;3.70;99.90;;;;;;5011502;28;20037;-56
2023/03/08 06:28:39;;;;;;;11.80;7.82;;;3.70;99.90;;;;;;4994550;28;20157;-57
2023/03/08 06:31:06;;;;;;;15.45;7.85;;;3.70;99.90;;;;;;5013119;28;20345;-56
2023/03/08 06:33:33;;;;;;;10.15;7.97;;;3.60;99.90;;;;;;4998694;28;20066;-56
2023/03/08 06:36:01;;;;;;;11.05;7.88;;;3.70;99.90;;;;;;5007257;28;20557;-57
2023/03/08 06:38:28;;;;;;;9.98;7.38;;;3.60;99.90;;;;;;5007504;28;20076;-58
2023/03/08 06:40:54;;;;;;;12.57;8.43;;;3.60;99.90;;;;;;4999097;28;20044;-57
2023/03/08 06:43:19;;;;;;;8.98;7.65;;;3.60;99.90;;;;;;5014911;28;20137;-57
2023/03/08 06:45:45;;;;;;;15.13;9.20;;;3.60;99.90;;;;;;4995420;28;20465;-58
2023/03/08 06:48:11;;;;;;;13.27;8.75;;;3.60;99.90;;;;;;5011229;28;20034;-57
2023/03/08 06:50:37;;;;;;;10.88;8.48;;;3.60;99.90;;;;;;5007283;28;20046;-58
2023/03/08 06:53:03;;;;;;;12.77;8.85;;;3.60;99.90;;;;;;4997968;28;20469;-58
2023/03/08 06:55:28;;;;;;;10.60;8.98;;;3.70;99.90;;;;;;5020650;28;20025;-58
2023/03/08 06:57:57;;;;;;;11.15;9.13;;;3.70;99.90;;;;;;5001188;28;20558;-57
2023/03/08 07:00:23;;;;;;;11.27;8.65;;;3.70;99.90;;;;;;5007985;28;20036;-57
2023/03/08 07:02:48;;;;;;;11.18;8.00;;;3.70;99.90;;;;;;5005158;28;20026;-57
2023/03/08 07:05:17;;;;;;;12.52;8.82;;;3.60;99.90;;;;;;5001596;28;20053;-57
2023/03/08 07:07:42;;;;;;;12.95;7.65;;;3.60;99.90;;;;;;5013419;28;20022;-58
2023/03/08 07:10:15;;;;;;;11.52;7.38;;;3.60;99.90;;;;;;4996002;28;20060;-58
2023/03/08 07:12:42;;;;;;;8.88;6.03;;;3.60;99.90;;;;;;5013586;28;20087;-57
2023/03/08 07:15:17;;;;;;;11.95;7.53;;;3.60;99.90;;;;;;5000211;28;20034;-57
2023/03/08 07:17:44;;;;;;;8.52;6.30;;;3.70;99.90;;;;;;5003011;28;20034;-57
2023/03/08 07:20:13;;;;;;;12.80;6.82;;;3.70;99.90;;;;;;5005633;28;20038;-57
2023/03/08 07:22:42;;;;;;;8.18;6.63;;;3.70;99.90;;;;;;5000424;28;20557;-57
2023/03/08 07:25:13;;;;;;;13.80;8.13;;;3.60;99.90;;;;;;5015392;28;20049;-57
2023/03/08 07:27:38;;;;;;;11.00;7.80;;;3.50;99.90;;;;;;4997088;28;20432;-57
2023/03/08 07:30:05;;;;;;;12.25;7.35;;;3.40;99.90;;;;;;5006565;28;20026;-57
2023/03/08 07:32:30;;;;;;;10.23;7.93;;;3.40;99.90;;;;;;5006001;28;20122;-57
2023/03/08 07:34:56;;;;;;;9.45;8.07;;;3.40;99.90;;;;;;4997355;28;20105;-58
2023/03/08 07:37:23;;;;;;;11.00;7.75;;;3.30;99.90;;;;;;5014707;28;20263;-58
2023/03/08 07:39:48;;;;;;;15.93;9.23;;;3.30;99.90;;;;;;4993105;28;20085;-58
2023/03/08 07:42:14;;;;;;;12.32;9.10;;;3.30;99.90;;;;;;5007768;28;20033;-59
2023/03/08 07:44:40;;;;;;;12.43;8.40;;;3.20;99.90;;;;;;5004174;28;20057;-58
2023/03/08 07:47:07;;;;;;;11.70;8.55;;;3.20;99.90;;;;;;5000616;28;20026;-58
2023/03/08 07:49:33;;;;;;;11.75;8.23;;;3.10;99.90;;;;;;5014785;28;20076;-56
2023/03/08 07:51:58;;;;;;;14.38;10.02;;;3.00;99.90;;;;;;4997328;28;20030;-57
2023/03/08 07:54:24;;;;;;;14.73;9.68;;;3.00;99.90;;;;;;5009229;28;20663;-58
2023/03/08 07:56:54;;;;;;;12.60;9.38;;;2.90;99.90;;;;;;5001907;28;20023;-58
2023/03/08 07:59:22;;;;;;;12.95;9.73;;;2.90;99.90;;;;;;5005088;28;20042;-57
2023/03/08 08:01:47;;;;;;;13.40;9.10;;;2.80;99.90;;;;;;5011947;28;20028;-59
2023/03/08 08:04:13;;;;;;;14.50;10.07;;;2.80;99.90;;;;;;4999840;28;20026;-57
2023/03/08 08:06:39;;;;;;;15.48;9.32;;;2.80;99.90;;;;;;5009251;28;20672;-59
2023/03/08 08:09:06;;;;;;;16.27;9.80;;;2.70;99.90;;;;;;5003591;28;20118;-56
2023/03/08 08:11:33;;;;;;;19.85;11.50;;;2.70;99.90;;;;;;5002020;28;20038;-57
2023/03/08 08:13:59;;;;;;;17.50;11.05;;;2.70;99.90;;;;;;5014620;28;20070;-56
2023/03/08 08:16:24;;;;;;;16.25;10.45;;;2.70;99.90;;;;;;5000474;28;20034;-58
2023/03/08 08:18:51;;;;;;;15.77;10.70;;;2.70;99.90;;;;;;5019355;28;20037;-58
2023/03/08 08:21:17;;;;;;;20.33;10.23;;;2.70;99.90;;;;;;5004975;28;20050;-56
2023/03/08 08:23:43;;;;;;;16.65;11.80;;;2.70;99.90;;;;;;5010936;28;20029;-58
2023/03/08 08:26:16;;;;;;;19.05;10.25;;;2.60;99.90;;;;;;5014577;28;20494;-57
2023/03/08 08:28:43;;;;;;;19.20;11.77;;;2.60;99.90;;;;;;5002437;28;20490;-58
2023/03/08 08:31:11;;;;;;;18.77;11.65;;;2.60;99.90;;;;;;5018323;28;20017;-56
2023/03/08 08:33:37;;;;;;;18.33;11.65;;;2.50;99.90;;;;;;5003208;28;20027;-59
2023/03/08 08:36:05;;;;;;;18.17;12.18;;;2.50;99.90;;;;;;5007854;28;20026;-58
2023/03/08 08:38:31;;;;;;;16.85;12.70;;;2.50;99.90;;;;;;5008675;28;20578;-58
2023/03/08 08:41:01;;;;;;;18.85;12.07;;;2.50;99.90;;;;;;5002336;28;20049;-56
2023/03/08 08:43:28;;;;;;;16.97;9.13;;;2.40;99.90;;;;;;5018760;28;20033;-59
2023/03/08 08:45:57;;;;;;;19.40;11.60;;;2.40;99.90;;;;;;4998488;28;20290;-57
2023/03/08 08:48:23;;;;;;;23.25;12.85;;;2.30;99.90;;;;;;5014275;28;20621;-59
2023/03/08 08:50:49;;;;;;;22.42;12.57;;;2.30;99.90;;;;;;5006972;28;20392;-58
2023/03/08 08:53:15;;;;;;;20.80;12.57;;;2.30;99.90;;;;;;5002752;28;20049;-57
2023/03/08 08:55:41;;;;;;;19.90;11.63;;;2.30;99.90;;;;;;5016893;28;20026;-58
2023/03/08 08:58:07;;;;;;;16.95;12.07;;;2.40;99.90;;;;;;4997285;28;20101;-57
2023/03/08 09:00:33;;;;;;;21.05;13.15;;;2.40;99.90;;;;;;5015441;28;20044;-57
2023/03/08 09:03:00;;;;;;;20.85;12.50;;;2.50;99.90;;;;;;5007222;28;20049;-59
2023/03/08 09:05:26;;;;;;;22.08;12.00;;;2.50;99.90;;;;;;5006155;28;20045;-57
2023/03/08 09:07:59;;;;;;;24.80;12.40;;;2.50;99.90;;;;;;5013798;28;20387;-58
2023/03/08 09:10:27;;;;;;;20.17;11.88;;;2.50;99.90;;;;;;4998065;28;20056;-57
2023/03/08 09:12:53;;;;;;;20.20;11.85;;;2.40;99.90;;;;;;5014433;28;20180;-59
2023/03/08 09:15:20;;;;;;;17.50;11.68;;;2.30;99.90;;;;;;5001537;28;20610;-58
2023/03/08 09:17:46;;;;;;;23.40;12.18;;;2.20;99.90;;;;;;5009206;28;20033;-57
2023/03/08 09:20:12;;;;;;;18.58;12.07;;;2.20;99.90;;;;;;5007059;28;20081;-59
2023/03/08 09:22:38;;;;;;;22.02;13.65;;;2.10;99.90;;;;;;4994861;28;20492;-58
2023/03/08 09:25:06;;;;;;;18.73;12.75;;;2.10;99.90;;;;;;5015465;28;20394;-58
2023/03/08 09:27:32;;;;;;;21.58;12.73;;;2.00;99.90;;;;;;4999522;28;20042;-57
2023/03/08 09:29:57;;;;;;;17.80;11.57;;;1.90;99.90;;;;;;5006979;28;20037;-58
2023/03/08 09:32:24;;;;;;;18.55;12.52;;;1.90;99.90;;;;;;5008226;28;20406;-59
2023/03/08 09:34:50;;;;;;;25.23;14.02;;;1.90;99.90;;;;;;5000331;28;20029;-57
2023/03/08 09:37:16;;;;;;;26.50;14.75;;;2.00;99.90;;;;;;5013179;28;20022;-59
2023/03/08 09:39:43;;;;;;;26.27;14.30;;;2.00;99.90;;;;;;5000011;28;20034;-58
2023/03/08 09:42:22;;;;;;;28.38;14.82;;;2.10;99.90;;;;;;5010306;28;20029;-58
2023/03/08 09:45:07;;;;;;;23.52;13.57;;;2.20;99.90;;;;;;5005553;28;20023;-58
2023/03/08 09:47:38;;;;;;;34.65;14.40;;;2.30;99.90;;;;;;5006391;28;20034;-59
2023/03/08 09:50:10;;;;;;;21.92;12.95;;;2.30;99.90;;;;;;5009891;28;20023;-57
2023/03/08 09:52:47;;;;;;;21.90;13.77;;;2.40;99.90;;;;;;5000552;28;20022;-58
2023/03/08 09:55:29;;;;;;;21.30;13.18;;;2.40;99.90;;;;;;5015837;28;20045;-57
2023/03/08 09:58:04;;;;;;;22.63;13.27;;;2.30;99.90;;;;;;4996304;28;20034;-58
2023/03/08 10:00:36;;;;;;;20.60;14.60;;;2.30;99.90;;;;;;5012398;28;20030;-57
2023/03/08 10:03:10;;;;;;;21.80;14.93;;;2.30;99.90;;;;;;5004707;28;20053;-59
2023/03/08 10:05:40;;;;;;;21.02;13.05;;;2.30;99.90;;;;;;4996728;28;20503;-59
2023/03/08 10:08:11;;;;;;;21.33;12.98;;;2.30;99.90;;;;;;4999009;28;20044;-59
2023/03/08 10:10:47;;;;;;;23.65;14.40;;;2.30;99.90;;;;;;5015184;28;20022;-59
2023/03/08 10:13:37;;;;;;;23.92;13.65;;;2.30;99.90;;;;;;4999735;28;20034;-58
2023/03/08 10:16:24;;;;;;;23.58;13.90;;;2.40;99.90;;;;;;4995816;28;20124;-59
2023/03/08 10:19:11;;;;;;;29.13;16.08;;;2.30;99.90;;;;;;5016259;28;20117;-59
2023/03/08 10:21:39;;;;;;;27.58;14.18;;;2.30;99.90;;;;;;4999820;28;20118;-59
2023/03/08 10:24:13;;;;;;;24.55;14.38;;;2.30;99.90;;;;;;5010129;28;20058;-58
2023/03/08 10:26:41;;;;;;;25.02;13.57;;;2.40;99.90;;;;;;5008123;28;20038;-57
2023/03/08 10:29:11;;;;;;;26.25;14.52;;;2.50;99.90;;;;;;5000294;28;20038;-57
2023/03/08 10:31:38;;;;;;;17.77;12.43;;;2.50;99.90;;;;;;5018722;28;20108;-57
2023/03/08 10:34:16;;;;;;;20.95;13.63;;;2.40;99.90;;;;;;4998107;28;20028;-58
2023/03/08 10:36:52;;;;;;;23.60;14.48;;;2.40;99.90;;;;;;5011015;28;20041;-58
2023/03/08 10:39:19;;;;;;;24.50;14.23;;;2.50;99.90;;;;;;4999958;28;20030;-59
2023/03/08 10:42:00;;;;;;;22.08;13.55;;;2.40;99.90;;;;;;5007269;28;20022;-57
2023/03/08 10:44:52;;;;;;;25.58;13.63;;;2.40;99.90;;;;;;5008763;28;20057;-58
2023/03/08 10:47:30;;;;;;;20.27;11.55;;;2.40;99.90;;;;;;5001954;28;20025;-58
2023/03/08 10:50:23;;;;;;;21.80;13.32;;;2.50;99.90;;;;;;5015824;28;20048;-58
2023/03/08 10:52:50;;;;;;;22.00;13.23;;;2.50;99.90;;;;;;4999381;28;20041;-58
2023/03/08 10:55:22;;;;;;;19.25;11.82;;;2.40;99.90;;;;;;5018918;28;20113;-57
2023/03/08 10:57:56;;;;;;;23.48;13.30;;;2.40;99.90;;;;;;4997949;28;20140;-58
2023/03/08 11:00:32;;;;;;;21.17;12.88;;;2.30;99.90;;;;;;5012197;28;20568;-59
2023/03/08 11:03:21;;;;;;;20.80;12.90;;;2.20;99.90;;;;;;5004713;28;20023;-60
2023/03/08 11:05:53;;;;;;;21.92;12.77;;;2.20;99.90;;;;;;5007192;28;20139;-59
2023/03/08 11:08:26;;;;;;;19.60;13.35;;;2.20;99.90;;;;;;5008651;28;20022;-57
2023/03/08 11:11:10;;;;;;;25.17;13.43;;;2.20;99.90;;;;;;4999577;28;20138;-59
2023/03/08 11:13:37;;;;;;;22.10;12.48;;;2.10;99.90;;;;;;5015132;28;20022;-57
2023/03/08 11:16:30;;;;;;;26.58;15.85;;;2.20;99.90;;;;;;4996728;28;20050;-56
2023/03/08 11:19:34;;;;;;;19.17;12.77;;;2.20;99.90;;;;;;5016385;28;20028;-58
2023/03/08 11:22:03;;;;;;;19.40;12.18;;;2.20;99.90;;;;;;4994900;28;20034;-57
2023/03/08 11:24:44;;;;;;;16.88;11.82;;;2.30;99.90;;;;;;4996590;28;20025;-57
2023/03/08 11:27:30;;;;;;;23.25;14.23;;;2.30;99.90;;;;;;4995118;28;20535;-58
2023/03/08 11:30:10;;;;;;;24.08;13.40;;;2.40;99.90;;;;;;4997966;28;20069;-58
2023/03/08 11:32:44;;;;;;;20.83;12.15;;;2.30;99.90;;;;;;4996045;28;20035;-59
2023/03/08 11:35:35;;;;;;;20.33;12.68;;;2.30;99.90;;;;;;4997859;28;20034;-57
2023/03/08 11:38:05;;;;;;;17.85;11.55;;;2.40;99.90;;;;;;4998474;28;20085;-57
2023/03/08 11:40:55;;;;;;;18.92;12.70;;;2.40;99.90;;;;;;4994628;28;20029;-58
2023/03/08 11:43:33;;;;;;;18.33;12.38;;;2.40;99.90;;;;;;4995669;28;20045;-58
2023/03/08 11:46:26;;;;;;;20.15;11.98;;;2.40;99.90;;;;;;4996092;28;20031;-57
2023/03/08 11:49:12;;;;;;;17.98;13.45;;;2.40;99.90;;;;;;5015434;28;20128;-59
2023/03/08 11:51:56;;;;;;;15.95;12.27;;;2.30;99.90;;;;;;5001503;28;20034;-59
2023/03/08 11:54:41;;;;;;;19.58;11.93;;;2.30;99.90;;;;;;5013300;28;20026;-58
2023/03/08 11:57:10;;;;;;;21.10;13.55;;;2.30;99.90;;;;;;5006137;28;20495;-57
2023/03/08 11:59:43;;;;;;;19.73;12.82;;;2.30;99.90;;;;;;5006089;28;20053;-58
2023/03/08 12:02:18;;;;;;;20.05;13.07;;;2.30;99.90;;;;;;5015365;28;20034;-58
2023/03/08 12:05:06;;;;;;;25.48;13.15;;;2.20;99.90;;;;;;4998830;28;20048;-58
2023/03/08 12:07:54;;;;;;;22.25;13.50;;;2.20;99.90;;;;;;5017667;28;20517;-57
2023/03/08 12:10:23;;;;;;;25.67;14.10;;;2.10;99.90;;;;;;4997195;28;20026;-59
2023/03/08 12:13:02;;;;;;;18.85;13.73;;;2.10;99.90;;;;;;5017548;28;20068;-58
2023/03/08 12:15:39;;;;;;;25.70;13.70;;;2.00;99.90;;;;;;5001626;28;20026;-58
2023/03/08 12:18:15;;;;;;;27.85;15.27;;;2.10;99.90;;;;;;5010303;28;20132;-58
2023/03/08 12:20:43;;;;;;;25.63;15.52;;;2.10;99.90;;;;;;5007275;28;20507;-59
2023/03/08 12:23:23;;;;;;;25.98;14.93;;;2.10;99.90;;;;;;5005914;28;20095;-61
2023/03/08 12:26:20;;;;;;;28.75;15.25;;;2.10;99.90;;;;;;5014339;28;20026;-59
2023/03/08 12:28:59;;;;;;;28.60;15.52;;;2.10;99.90;;;;;;4986938;28;20045;-57
2023/03/08 12:31:27;;;;;;;26.35;15.85;;;2.20;99.90;;;;;;5018958;28;20041;-58
2023/03/08 12:33:54;;;;;;;40.22;17.33;;;2.20;99.90;;;;;;4998763;28;20422;-58
2023/03/08 12:36:23;;;;;;;30.10;16.75;;;2.20;99.90;;;;;;5012654;28;20038;-59
2023/03/08 12:38:55;;;;;;;27.38;16.17;;;2.30;99.90;;;;;;5005962;28;20035;-57
2023/03/08 12:41:20;;;;;;;29.25;15.63;;;2.40;99.90;;;;;;5007143;28;20033;-58
2023/03/08 12:43:56;;;;;;;32.42;17.65;;;2.50;99.90;;;;;;5015358;28;20360;-58
2023/03/08 12:46:22;;;;;;;31.42;17.80;;;2.50;99.90;;;;;;4995300;28;20022;-59
2023/03/08 12:48:50;;;;;;;30.58;16.90;;;2.50;99.90;;;;;;5018622;28;20132;-57
2023/03/08 12:51:32;;;;;;;29.83;16.02;;;2.50;99.90;;;;;;5004675;28;20038;-58
2023/03/08 12:54:01;;;;;;;29.75;16.92;;;2.40;99.90;;;;;;5009719;28;20026;-58
2023/03/08 12:56:37;;;;;;;26.73;16.88;;;2.30;99.90;;;;;;5006800;28;20305;-57
2023/03/08 12:59:22;;;;;;;26.40;16.85;;;2.30;99.90;;;;;;5000288;28;20022;-57